createdAt,value
2018-08-25T00:00:12.005Z,5.60
2018-08-25T00:02:40.666Z,4.80
2018-08-25T00:05:09.334Z,4.60
2018-08-25T00:07:37.997Z,3.83
2018-08-25T00:10:06.949Z,7.50
2018-08-25T00:12:35.593Z,5.20
2018-08-25T00:15:04.250Z,3.77
2018-08-25T00:17:32.906Z,2.93
2018-08-25T00:20:01.564Z,3.97
2018-08-25T00:22:30.216Z,6.70
2018-08-25T00:24:58.861Z,4.30
2018-08-25T00:27:27.513Z,2.93
2018-08-25T00:29:56.398Z,6.60
2018-08-25T00:32:25.064Z,3.27
2018-08-25T00:34:53.690Z,9.37
2018-08-25T00:37:22.348Z,3.37
2018-08-25T00:39:51.034Z,4.37
2018-08-25T00:42:19.689Z,2.90
2018-08-25T00:44:48.421Z,4.27
2018-08-25T00:47:17.069Z,5.57
2018-08-25T00:49:45.735Z,3.53
2018-08-25T00:52:14.389Z,5.73
2018-08-25T00:54:43.036Z,4.30
2018-08-25T00:57:11.702Z,2.93
2018-08-25T00:59:40.402Z,6.87
2018-08-25T01:02:09.063Z,2.30
2018-08-25T01:04:37.721Z,6.50
2018-08-25T01:07:06.379Z,2.17
2018-08-25T01:09:35.034Z,2.93
2018-08-25T01:12:03.677Z,4.93
2018-08-25T01:14:32.368Z,2.90
2018-08-25T01:17:01.207Z,3.67
2018-08-25T01:19:29.910Z,2.80
2018-08-25T01:21:58.541Z,4.63
2018-08-25T01:24:27.214Z,7.60
2018-08-25T01:26:55.878Z,5.17
2018-08-25T01:29:24.536Z,4.77
2018-08-25T01:31:53.198Z,3.93
2018-08-25T01:34:21.866Z,5.27
2018-08-25T01:36:50.514Z,5.43
2018-08-25T01:39:19.170Z,3.90
2018-08-25T01:41:47.815Z,5.70
2018-08-25T01:44:17.516Z,5.20
2018-08-25T01:46:46.169Z,4.60
2018-08-25T01:49:14.830Z,4.87
2018-08-25T01:51:43.485Z,2.73
2018-08-25T01:54:12.141Z,4.63
2018-08-25T01:56:40.789Z,5.60
2018-08-25T01:59:09.449Z,7.03
2018-08-25T02:01:38.127Z,4.97
2018-08-25T02:04:06.762Z,4.70
2018-08-25T02:06:35.437Z,2.50
2018-08-25T02:09:06.507Z,3.80
2018-08-25T02:11:35.178Z,2.20
2018-08-25T02:14:03.833Z,6.40
2018-08-25T02:16:32.475Z,6.77
2018-08-25T02:19:01.613Z,4.50
2018-08-25T02:21:30.226Z,5.63
2018-08-25T02:23:59.002Z,3.97
2018-08-25T02:26:27.942Z,5.70
2018-08-25T02:28:56.597Z,4.67
2018-08-25T02:31:25.266Z,6.60
2018-08-25T02:33:53.922Z,4.37
2018-08-25T02:36:22.578Z,5.20
2018-08-25T02:38:51.288Z,5.03
2018-08-25T02:41:19.949Z,5.57
2018-08-25T02:43:48.613Z,3.63
2018-08-25T02:46:17.254Z,10.83
2018-08-25T02:48:45.915Z,6.40
2018-08-25T02:51:14.578Z,6.07
2018-08-25T02:53:43.257Z,7.10
2018-08-25T02:56:11.906Z,5.60
2018-08-25T02:58:40.553Z,3.23
2018-08-25T03:01:09.194Z,4.03
2018-08-25T03:03:37.838Z,4.20
2018-08-25T03:06:06.502Z,6.77
2018-08-25T03:08:35.155Z,5.80
2018-08-25T03:11:03.801Z,4.93
2018-08-25T03:13:32.442Z,3.10
2018-08-25T03:16:01.113Z,6.53
2018-08-25T03:18:29.758Z,5.27
2018-08-25T03:20:58.405Z,4.73
2018-08-25T03:23:27.050Z,5.97
2018-08-25T03:25:55.706Z,5.47
2018-08-25T03:28:24.433Z,9.30
2018-08-25T03:30:53.223Z,5.07
2018-08-25T03:33:21.889Z,7.37
2018-08-25T03:35:50.538Z,7.60
2018-08-25T03:38:19.190Z,4.70
2018-08-25T03:40:48.246Z,4.40
2018-08-25T03:43:16.963Z,9.80
2018-08-25T03:45:45.693Z,4.40
2018-08-25T03:48:14.349Z,5.93
2018-08-25T03:50:43.023Z,6.77
2018-08-25T03:53:11.661Z,6.20
2018-08-25T03:55:40.338Z,5.97
2018-08-25T03:58:08.971Z,9.17
2018-08-25T04:00:37.625Z,6.90
2018-08-25T04:03:06.279Z,6.67
2018-08-25T04:05:34.942Z,5.80
2018-08-25T04:08:03.618Z,8.57
2018-08-25T04:10:32.254Z,8.63
2018-08-25T04:13:00.906Z,5.13
2018-08-25T04:15:29.562Z,6.50
2018-08-25T04:17:58.226Z,8.90
2018-08-25T04:20:26.878Z,2.17
2018-08-25T04:22:55.527Z,4.43
2018-08-25T04:25:24.178Z,4.63
2018-08-25T04:27:52.858Z,5.27
2018-08-25T04:30:21.517Z,3.10
2018-08-25T04:32:50.394Z,8.80
2018-08-25T04:35:19.075Z,4.87
2018-08-25T04:37:47.722Z,5.17
2018-08-25T04:40:16.374Z,5.40
2018-08-25T04:42:45.027Z,6.13
2018-08-25T04:45:13.678Z,5.47
2018-08-25T04:47:42.321Z,7.40
2018-08-25T04:50:10.985Z,6.13
2018-08-25T04:52:39.633Z,6.97
2018-08-25T04:55:08.281Z,3.57
2018-08-25T04:57:36.931Z,7.40
2018-08-25T05:00:05.778Z,3.27
2018-08-25T05:02:34.418Z,5.60
2018-08-25T05:05:03.062Z,4.43
2018-08-25T05:07:31.714Z,5.17
2018-08-25T05:10:00.369Z,4.53
2018-08-25T05:12:29.001Z,5.63
2018-08-25T05:14:57.633Z,7.03
2018-08-25T05:17:26.277Z,4.90
2018-08-25T05:19:54.922Z,5.50
2018-08-25T05:22:23.565Z,3.63
2018-08-25T05:24:52.207Z,6.43
2018-08-25T05:27:20.862Z,5.03
2018-08-25T05:29:49.514Z,4.20
2018-08-25T05:32:18.163Z,5.07
2018-08-25T05:34:46.798Z,4.37
2018-08-25T05:37:15.449Z,6.90
2018-08-25T05:39:44.079Z,6.23
2018-08-25T05:42:12.722Z,3.53
2018-08-25T05:44:41.375Z,8.00
2018-08-25T05:47:10.027Z,7.00
2018-08-25T05:49:38.660Z,5.33
2018-08-25T05:52:07.330Z,5.03
2018-08-25T05:54:35.981Z,4.30
2018-08-25T05:57:04.634Z,4.60
2018-08-25T05:59:33.277Z,4.90
2018-08-25T06:02:01.918Z,4.93
2018-08-25T06:04:30.567Z,5.90
2018-08-25T06:06:59.209Z,6.40
2018-08-25T06:09:27.847Z,5.10
2018-08-25T06:11:56.492Z,5.67
2018-08-25T06:14:25.128Z,7.27
2018-08-25T06:16:53.790Z,7.10
2018-08-25T06:19:22.498Z,8.00
2018-08-25T06:21:51.151Z,9.37
2018-08-25T06:24:19.798Z,6.83
2018-08-25T06:26:48.469Z,11.83
2018-08-25T06:29:17.139Z,8.50
2018-08-25T06:31:45.846Z,8.00
2018-08-25T06:34:14.525Z,7.03
2018-08-25T06:36:43.271Z,6.70
2018-08-25T06:39:11.838Z,8.00
2018-08-25T06:41:40.566Z,7.83
2018-08-25T06:44:09.217Z,9.60
2018-08-25T06:46:37.890Z,11.07
2018-08-25T06:49:06.539Z,9.33
2018-08-25T06:51:35.202Z,9.00
2018-08-25T06:54:03.837Z,9.60
2018-08-25T06:56:32.498Z,10.00
2018-08-25T06:59:01.164Z,10.23
2018-08-25T07:01:29.829Z,14.87
2018-08-25T07:03:58.479Z,8.40
2018-08-25T07:06:27.139Z,8.13
2018-08-25T07:08:55.802Z,11.13
2018-08-25T07:11:24.442Z,8.70
2018-08-25T07:13:53.098Z,9.03
2018-08-25T07:16:21.745Z,12.20
2018-08-25T07:18:50.713Z,8.27
2018-08-25T07:21:19.353Z,7.70
2018-08-25T07:23:48.011Z,8.03
2018-08-25T07:26:16.763Z,18.33
2018-08-25T07:28:45.326Z,8.63
2018-08-25T07:31:13.982Z,8.77
2018-08-25T07:33:42.641Z,8.73
2018-08-25T07:36:11.279Z,8.53
2018-08-25T07:38:39.990Z,7.53
2018-08-25T07:41:08.635Z,8.30
2018-08-25T07:43:37.403Z,9.20
2018-08-25T07:46:06.062Z,11.80
2018-08-25T07:48:34.731Z,8.20
2018-08-25T07:51:03.388Z,7.07
2018-08-25T07:53:32.038Z,8.10
2018-08-25T07:56:00.678Z,6.70
2018-08-25T07:58:29.409Z,7.47
2018-08-25T08:00:57.989Z,6.90
2018-08-25T08:03:26.647Z,9.63
2018-08-25T08:05:55.297Z,10.27
2018-08-25T08:08:23.974Z,8.10
2018-08-25T08:10:52.613Z,7.80
2018-08-25T08:13:21.349Z,10.33
2018-08-25T08:15:49.989Z,7.07
2018-08-25T08:18:18.650Z,9.40
2018-08-25T08:20:47.303Z,7.67
2018-08-25T08:23:15.962Z,7.37
2018-08-25T08:25:44.629Z,26.37
2018-08-25T08:28:13.262Z,8.10
2018-08-25T08:30:41.926Z,7.60
2018-08-25T08:33:10.847Z,8.27
2018-08-25T08:35:39.443Z,7.60
2018-08-25T08:38:08.122Z,9.90
2018-08-25T08:40:36.777Z,8.07
2018-08-25T08:43:05.441Z,7.73
2018-08-25T08:45:34.103Z,9.13
2018-08-25T08:48:02.746Z,8.70
2018-08-25T08:50:31.481Z,8.20
2018-08-25T08:53:00.083Z,8.87
2018-08-25T08:55:28.738Z,8.67
2018-08-25T08:57:57.393Z,8.40
2018-08-25T09:00:26.039Z,8.40
2018-08-25T09:02:54.858Z,8.43
2018-08-25T09:05:23.506Z,8.00
2018-08-25T09:07:52.154Z,10.10
2018-08-25T09:10:20.799Z,11.63
2018-08-25T09:12:49.466Z,12.80
2018-08-25T09:15:18.167Z,11.50
2018-08-25T09:17:46.830Z,11.87
2018-08-25T09:20:15.564Z,13.83
2018-08-25T09:22:45.647Z,14.30
2018-08-25T09:25:19.143Z,17.30
2018-08-25T09:27:47.913Z,12.80
2018-08-25T09:30:16.570Z,12.57
2018-08-25T09:32:45.230Z,10.80
2018-08-25T09:35:13.895Z,10.33
2018-08-25T09:37:42.546Z,12.13
2018-08-25T09:40:11.205Z,10.33
2018-08-25T09:42:39.934Z,10.30
2018-08-25T09:45:08.593Z,9.17
2018-08-25T09:47:37.244Z,7.10
2018-08-25T09:50:06.669Z,5.67
2018-08-25T09:52:35.374Z,6.30
2018-08-25T09:55:04.198Z,5.20
2018-08-25T09:57:32.817Z,4.87
2018-08-25T10:00:01.469Z,3.93
2018-08-25T10:02:30.117Z,2.60
2018-08-25T10:04:58.757Z,2.50
2018-08-25T10:07:27.409Z,3.17
2018-08-25T10:09:56.053Z,2.73
2018-08-25T10:12:24.693Z,2.57
2018-08-25T10:14:53.353Z,3.83
2018-08-25T10:17:22.002Z,4.17
2018-08-25T10:19:50.649Z,2.13
2018-08-25T10:22:19.289Z,3.13
2018-08-25T10:24:47.941Z,5.00
2018-08-25T10:27:16.630Z,3.20
2018-08-25T10:29:45.301Z,4.23
2018-08-25T10:32:13.953Z,4.00
2018-08-25T10:34:42.705Z,3.30
2018-08-25T10:37:11.436Z,1.77
2018-08-25T10:39:40.102Z,2.60
2018-08-25T10:42:08.812Z,1.10
2018-08-25T10:44:37.503Z,1.83
2018-08-25T10:47:06.138Z,2.07
2018-08-25T10:49:34.806Z,2.87
2018-08-25T10:52:03.495Z,1.97
2018-08-25T10:54:32.145Z,1.70
2018-08-25T10:57:00.797Z,2.43
2018-08-25T10:59:29.450Z,3.97
2018-08-25T11:01:58.193Z,1.87
2018-08-25T11:04:26.938Z,2.30
2018-08-25T11:06:55.578Z,2.37
2018-08-25T11:09:24.287Z,1.67
2018-08-25T11:11:52.942Z,1.00
2018-08-25T11:14:21.777Z,2.10
2018-08-25T11:16:50.639Z,1.20
2018-08-25T11:19:19.633Z,2.30
2018-08-25T11:21:48.572Z,2.50
2018-08-25T11:24:17.626Z,2.10
2018-08-25T11:26:46.689Z,1.80
2018-08-25T11:29:15.435Z,2.53
2018-08-25T11:31:44.098Z,2.20
2018-08-25T11:34:12.814Z,1.97
2018-08-25T11:36:41.470Z,1.80
2018-08-25T11:39:10.922Z,1.33
2018-08-25T11:41:39.673Z,1.43
2018-08-25T11:44:08.380Z,2.93
2018-08-25T11:46:36.978Z,1.87
2018-08-25T11:49:05.640Z,2.00
2018-08-25T11:51:34.299Z,4.80
2018-08-25T11:54:02.967Z,3.87
2018-08-25T11:56:31.602Z,2.77
2018-08-25T11:59:00.366Z,2.87
2018-08-25T12:01:29.002Z,3.00
2018-08-25T12:03:57.650Z,3.60
2018-08-25T12:06:26.329Z,3.00
2018-08-25T12:08:55.022Z,2.40
2018-08-25T12:11:23.770Z,3.33
2018-08-25T12:13:52.488Z,2.73
2018-08-25T12:16:21.375Z,1.93
2018-08-25T12:18:50.367Z,2.60
2018-08-25T12:21:19.038Z,2.10
2018-08-25T12:23:47.685Z,2.00
2018-08-25T12:26:16.333Z,2.73
2018-08-25T12:28:50.738Z,3.30
2018-08-25T12:31:19.402Z,2.40
2018-08-25T12:33:48.059Z,3.67
2018-08-25T12:36:16.702Z,2.70
2018-08-25T12:38:45.390Z,4.40
2018-08-25T12:41:16.025Z,2.20
2018-08-25T12:43:45.670Z,3.83
2018-08-25T12:46:14.439Z,6.20
2018-08-25T12:48:43.109Z,5.20
2018-08-25T12:51:11.829Z,2.43
2018-08-25T12:53:40.610Z,3.30
2018-08-25T12:56:09.235Z,2.77
2018-08-25T12:58:37.942Z,3.33
2018-08-25T13:01:06.605Z,4.00
2018-08-25T13:03:35.255Z,2.97
2018-08-25T13:06:03.926Z,3.63
2018-08-25T13:08:32.578Z,2.80
2018-08-25T13:11:01.229Z,2.83
2018-08-25T13:13:29.913Z,2.73
2018-08-25T13:15:58.557Z,4.77
2018-08-25T13:18:27.215Z,5.27
2018-08-25T13:20:55.867Z,3.60
2018-08-25T13:23:24.510Z,4.43
2018-08-25T13:25:53.154Z,4.50
2018-08-25T13:28:21.806Z,5.00
2018-08-25T13:30:50.502Z,2.67
2018-08-25T13:33:19.201Z,3.67
2018-08-25T13:35:47.875Z,4.17
2018-08-25T13:38:16.543Z,2.90
2018-08-25T13:40:45.153Z,3.90
2018-08-25T13:43:13.996Z,3.80
2018-08-25T13:45:42.705Z,4.80
2018-08-25T13:48:11.361Z,3.70
2018-08-25T13:50:40.005Z,3.37
2018-08-25T13:53:08.690Z,4.10
2018-08-25T13:55:37.341Z,4.23
2018-08-25T13:58:06.012Z,3.13
2018-08-25T14:00:34.694Z,3.93
2018-08-25T14:03:03.354Z,2.23
2018-08-25T14:05:31.997Z,1.73
2018-08-25T14:08:00.667Z,2.23
2018-08-25T14:10:29.397Z,1.53
2018-08-25T14:12:58.107Z,2.03
2018-08-25T14:15:26.745Z,3.40
2018-08-25T14:17:55.390Z,2.83
2018-08-25T14:20:24.026Z,2.47
2018-08-25T14:22:52.681Z,6.73
2018-08-25T14:25:21.333Z,2.80
2018-08-25T14:27:49.993Z,2.53
2018-08-25T14:30:18.628Z,1.27
2018-08-25T14:32:47.275Z,1.50
2018-08-25T14:35:15.914Z,2.90
2018-08-25T14:37:44.562Z,1.70
2018-08-25T14:40:13.209Z,2.17
2018-08-25T14:42:41.866Z,3.60
2018-08-25T14:45:10.502Z,2.47
2018-08-25T14:47:39.154Z,2.60
2018-08-25T14:50:07.867Z,2.47
2018-08-25T14:52:36.513Z,2.17
2018-08-25T14:55:05.151Z,1.90
2018-08-25T14:57:33.798Z,1.40
2018-08-25T15:00:02.442Z,1.70
2018-08-25T15:02:31.169Z,2.53
2018-08-25T15:04:59.813Z,2.17
2018-08-25T15:07:28.457Z,2.20
2018-08-25T15:09:57.122Z,1.90
2018-08-25T15:12:25.769Z,2.00
2018-08-25T15:14:54.417Z,2.40
2018-08-25T15:17:23.073Z,1.10
2018-08-25T15:19:51.718Z,4.13
2018-08-25T15:22:20.372Z,1.70
2018-08-25T15:24:49.010Z,1.37
2018-08-25T15:27:17.720Z,2.17
2018-08-25T15:29:46.305Z,3.83
2018-08-25T15:32:14.960Z,1.50
2018-08-25T15:34:43.600Z,2.90
2018-08-25T15:37:13.090Z,2.37
2018-08-25T15:39:41.746Z,2.17
2018-08-25T15:42:10.413Z,2.17
2018-08-25T15:44:39.053Z,1.90
2018-08-25T15:47:07.751Z,1.83
2018-08-25T15:49:36.488Z,2.37
2018-08-25T15:52:05.174Z,2.77
2018-08-25T15:54:34.014Z,2.57
2018-08-25T15:57:02.658Z,2.30
2018-08-25T15:59:31.313Z,3.53
2018-08-25T16:01:59.972Z,3.50
2018-08-25T16:04:28.620Z,3.00
2018-08-25T16:06:57.274Z,1.53
2018-08-25T16:09:25.923Z,4.43
2018-08-25T16:11:54.644Z,3.33
2018-08-25T16:14:23.222Z,3.20
2018-08-25T16:16:51.996Z,5.27
2018-08-25T16:19:20.709Z,2.57
2018-08-25T16:21:49.354Z,2.27
2018-08-25T16:24:18.006Z,1.63
2018-08-25T16:26:46.666Z,4.43
2018-08-25T16:29:15.306Z,4.77
2018-08-25T16:31:43.974Z,1.93
2018-08-25T16:34:12.830Z,1.20
2018-08-25T16:36:41.486Z,2.03
2018-08-25T16:39:10.137Z,1.20
2018-08-25T16:41:38.791Z,2.60
2018-08-25T16:44:07.442Z,1.50
2018-08-25T16:46:36.097Z,1.20
2018-08-25T16:49:04.848Z,2.40
2018-08-25T16:51:33.534Z,1.30
2018-08-25T16:54:02.202Z,2.00
2018-08-25T16:56:30.850Z,1.60
2018-08-25T16:58:59.542Z,2.17
2018-08-25T17:01:28.243Z,2.63
2018-08-25T17:03:56.909Z,3.20
2018-08-25T17:06:25.559Z,1.40
2018-08-25T17:08:54.359Z,4.00
2018-08-25T17:11:22.991Z,1.57
2018-08-25T17:13:51.652Z,1.47
2018-08-25T17:16:20.289Z,1.93
2018-08-25T17:18:48.946Z,1.40
2018-08-25T17:21:17.587Z,1.27
2018-08-25T17:23:46.238Z,1.30
2018-08-25T17:26:14.894Z,1.63
2018-08-25T17:28:43.550Z,1.20
2018-08-25T17:31:12.190Z,4.00
2018-08-25T17:33:40.842Z,1.33
2018-08-25T17:36:09.477Z,1.63
2018-08-25T17:38:38.139Z,2.17
2018-08-25T17:41:06.766Z,1.90
2018-08-25T17:43:35.416Z,3.60
2018-08-25T17:46:04.578Z,5.40
2018-08-25T17:48:33.213Z,7.23
2018-08-25T17:51:01.903Z,3.57
2018-08-25T17:53:30.524Z,2.47
2018-08-25T17:55:59.177Z,2.40
2018-08-25T17:58:27.909Z,2.10
2018-08-25T18:00:56.569Z,2.60
2018-08-25T18:03:25.221Z,2.40
2018-08-25T18:05:53.925Z,2.93
2018-08-25T18:08:22.610Z,1.67
2018-08-25T18:10:51.433Z,1.50
2018-08-25T18:13:20.218Z,2.20
2018-08-25T18:15:48.865Z,1.77
2018-08-25T18:18:17.618Z,2.57
2018-08-25T18:20:46.266Z,2.40
2018-08-25T18:23:14.930Z,1.50
2018-08-25T18:25:43.575Z,2.17
2018-08-25T18:28:12.225Z,4.00
2018-08-25T18:30:40.986Z,1.77
2018-08-25T18:33:09.707Z,1.60
2018-08-25T18:35:38.353Z,1.70
2018-08-25T18:38:07.005Z,2.33
2018-08-25T18:40:35.698Z,6.67
2018-08-25T18:43:04.354Z,3.17
2018-08-25T18:45:33.038Z,1.80
2018-08-25T18:48:01.716Z,1.93
2018-08-25T18:50:30.367Z,3.33
2018-08-25T18:52:59.026Z,4.10
2018-08-25T18:55:27.694Z,3.30
2018-08-25T18:57:56.331Z,1.70
2018-08-25T19:00:25.003Z,1.73
2018-08-25T19:02:53.693Z,2.10
2018-08-25T19:05:22.345Z,1.77
2018-08-25T19:07:50.991Z,2.03
2018-08-25T19:10:19.646Z,1.63
2018-08-25T19:12:48.294Z,1.80
2018-08-25T19:15:16.947Z,1.40
2018-08-25T19:17:45.581Z,1.17
2018-08-25T19:20:14.322Z,2.20
2018-08-25T19:22:42.958Z,2.10
2018-08-25T19:25:11.605Z,2.07
2018-08-25T19:27:40.237Z,4.03
2018-08-25T19:30:08.885Z,3.63
2018-08-25T19:32:37.541Z,1.93
2018-08-25T19:35:06.195Z,1.23
2018-08-25T19:37:34.836Z,1.93
2018-08-25T19:40:03.518Z,1.30
2018-08-25T19:42:32.161Z,1.33
2018-08-25T19:45:00.825Z,2.07
2018-08-25T19:47:29.466Z,1.10
2018-08-25T19:49:58.130Z,1.03
2018-08-25T19:52:26.774Z,1.43
2018-08-25T19:54:55.470Z,3.60
2018-08-25T19:57:24.118Z,2.93
2018-08-25T19:59:52.765Z,1.30
2018-08-25T20:02:21.550Z,1.00
2018-08-25T20:04:50.220Z,2.37
2018-08-25T20:07:18.879Z,1.10
2018-08-25T20:09:47.589Z,2.20
2018-08-25T20:12:16.205Z,1.57
2018-08-25T20:14:44.946Z,2.23
2018-08-25T20:17:13.594Z,1.40
2018-08-25T20:19:42.233Z,2.03
2018-08-25T20:22:11.242Z,1.80
2018-08-25T20:24:40.238Z,1.50
2018-08-25T20:27:08.895Z,3.73
2018-08-25T20:29:37.573Z,2.13
2018-08-25T20:32:06.295Z,1.40
2018-08-25T20:34:34.902Z,2.23
2018-08-25T20:37:03.557Z,2.70
2018-08-25T20:39:32.201Z,2.47
2018-08-25T20:42:00.893Z,2.07
2018-08-25T20:44:29.541Z,2.60
2018-08-25T20:46:58.193Z,2.87
2018-08-25T20:49:26.833Z,1.60
2018-08-25T20:51:55.498Z,2.03
2018-08-25T20:54:30.947Z,1.77
2018-08-25T20:56:59.601Z,3.60
2018-08-25T20:59:28.237Z,3.17
2018-08-25T21:01:56.887Z,3.00
2018-08-25T21:04:25.613Z,5.70
2018-08-25T21:06:54.397Z,2.10
2018-08-25T21:09:23.054Z,3.77
2018-08-25T21:11:51.717Z,3.93
2018-08-25T21:14:20.362Z,2.70
2018-08-25T21:16:49.025Z,2.20
2018-08-25T21:19:21.016Z,2.10
2018-08-25T21:21:50.402Z,3.57
2018-08-25T21:24:20.410Z,3.23
2018-08-25T21:26:53.268Z,2.90
2018-08-25T21:29:21.882Z,2.40
2018-08-25T21:31:50.574Z,2.20
2018-08-25T21:34:19.229Z,2.67
2018-08-25T21:36:48.426Z,2.77
2018-08-25T21:39:17.074Z,4.73
2018-08-25T21:41:45.730Z,2.37
2018-08-25T21:44:14.402Z,5.23
2018-08-25T21:46:44.181Z,5.80
2018-08-25T21:49:12.851Z,2.80
2018-08-25T21:51:42.685Z,5.47
2018-08-25T21:54:11.390Z,2.07
2018-08-25T21:56:40.045Z,2.90
2018-08-25T21:59:08.776Z,3.43
2018-08-25T22:01:42.277Z,2.43
2018-08-25T22:04:11.993Z,4.00
2018-08-25T22:06:40.641Z,5.63
2018-08-25T22:09:11.038Z,4.00
2018-08-25T22:11:39.709Z,4.77
2018-08-25T22:14:08.358Z,8.90
2018-08-25T22:16:37.007Z,5.13
2018-08-25T22:19:05.687Z,4.40
2018-08-25T22:21:34.338Z,3.60
2018-08-25T22:24:02.984Z,6.97
2018-08-25T22:26:31.640Z,4.00
2018-08-25T22:29:00.285Z,6.03
2018-08-25T22:31:28.929Z,5.07
2018-08-25T22:33:57.581Z,4.97
2018-08-25T22:36:26.229Z,3.40
2018-08-25T22:38:54.893Z,4.07
2018-08-25T22:41:23.660Z,10.83
2018-08-25T22:43:52.241Z,3.67
2018-08-25T22:46:20.899Z,5.37
2018-08-25T22:48:49.564Z,5.23
2018-08-25T22:51:18.578Z,4.20
2018-08-25T22:53:47.330Z,5.30
2018-08-25T22:56:15.982Z,6.53
2018-08-25T22:58:44.634Z,6.53
2018-08-25T23:01:13.307Z,4.10
2018-08-25T23:03:41.945Z,5.03
2018-08-25T23:06:10.598Z,4.67
2018-08-25T23:08:39.254Z,3.90
2018-08-25T23:11:08.710Z,4.63
2018-08-25T23:13:37.369Z,9.20
2018-08-25T23:16:09.102Z,4.00
2018-08-25T23:18:40.593Z,4.27
2018-08-25T23:21:10.973Z,5.20
2018-08-25T23:23:40.023Z,4.43
2018-08-25T23:26:09.220Z,6.60
2018-08-25T23:28:37.833Z,7.40
2018-08-25T23:31:12.256Z,4.73
2018-08-25T23:33:41.082Z,6.00
2018-08-25T23:36:15.142Z,5.23
2018-08-25T23:38:49.779Z,6.67
2018-08-25T23:41:21.336Z,6.57
2018-08-25T23:43:50.694Z,6.07
2018-08-25T23:46:19.364Z,5.40
2018-08-25T23:48:48.006Z,3.80
2018-08-25T23:51:16.661Z,8.93
2018-08-25T23:53:45.318Z,5.63
2018-08-25T23:56:13.961Z,7.07
2018-08-25T23:58:42.615Z,4.70
